createdAt,value
2018-07-26T00:00:10.534Z,7.10
2018-07-26T00:02:38.555Z,7.60
2018-07-26T00:05:06.665Z,5.78
2018-07-26T00:07:35.636Z,7.55
2018-07-26T00:10:04.990Z,6.58
2018-07-26T00:12:33.029Z,7.25
2018-07-26T00:15:01.107Z,5.78
2018-07-26T00:17:29.219Z,6.60
2018-07-26T00:19:57.176Z,6.30
2018-07-26T00:22:25.270Z,5.28
2018-07-26T00:24:53.465Z,6.83
2018-07-26T00:27:21.541Z,5.05
2018-07-26T00:29:49.594Z,6.05
2018-07-26T00:32:17.615Z,5.40
2018-07-26T00:34:45.668Z,6.47
2018-07-26T00:37:13.634Z,6.40
2018-07-26T00:39:41.602Z,6.50
2018-07-26T00:42:09.599Z,6.55
2018-07-26T00:44:37.666Z,6.37
2018-07-26T00:47:05.936Z,5.28
2018-07-26T00:49:34.060Z,7.35
2018-07-26T00:52:02.174Z,7.10
2018-07-26T00:54:30.246Z,9.38
2018-07-26T00:56:58.723Z,9.05
2018-07-26T00:59:26.703Z,8.08
2018-07-26T01:01:54.728Z,8.55
2018-07-26T01:04:22.793Z,7.95
2018-07-26T01:06:50.763Z,7.17
2018-07-26T01:09:18.884Z,8.50
2018-07-26T01:11:47.101Z,6.85
2018-07-26T01:14:15.324Z,8.38
2018-07-26T01:16:43.378Z,10.90
2018-07-26T01:19:11.418Z,7.47
2018-07-26T01:21:39.552Z,8.70
2018-07-26T01:24:07.586Z,6.55
2018-07-26T01:26:36.047Z,6.25
2018-07-26T01:29:04.223Z,7.80
2018-07-26T01:31:32.540Z,8.40
2018-07-26T01:34:00.570Z,9.75
2018-07-26T01:36:28.469Z,8.88
2018-07-26T01:38:56.517Z,7.10
2018-07-26T01:41:24.603Z,8.38
2018-07-26T01:44:03.822Z,6.70
2018-07-26T01:46:32.079Z,7.72
2018-07-26T01:49:00.256Z,7.92
2018-07-26T01:51:28.321Z,7.83
2018-07-26T01:53:56.544Z,7.85
2018-07-26T01:56:24.618Z,7.40
2018-07-26T01:58:52.565Z,7.58
2018-07-26T02:01:20.940Z,8.18
2018-07-26T02:03:48.853Z,8.23
2018-07-26T02:06:16.850Z,8.05
2018-07-26T02:08:44.911Z,9.38
2018-07-26T02:11:12.858Z,11.03
2018-07-26T02:13:41.293Z,8.85
2018-07-26T02:16:09.448Z,9.90
2018-07-26T02:18:37.502Z,8.05
2018-07-26T02:21:05.509Z,9.93
2018-07-26T02:23:33.491Z,9.68
2018-07-26T02:26:01.530Z,8.20
2018-07-26T02:28:29.499Z,8.20
2018-07-26T02:30:57.625Z,8.23
2018-07-26T02:33:25.619Z,9.55
2018-07-26T02:35:53.642Z,9.10
2018-07-26T02:38:21.697Z,8.85
2018-07-26T02:40:49.706Z,7.28
2018-07-26T02:43:17.805Z,9.03
2018-07-26T02:45:45.855Z,9.53
2018-07-26T02:48:13.801Z,7.10
2018-07-26T02:50:41.879Z,8.60
2018-07-26T02:53:09.852Z,10.70
2018-07-26T02:55:38.009Z,9.40
2018-07-26T02:58:06.595Z,9.68
2018-07-26T03:00:34.771Z,7.67
2018-07-26T03:03:02.948Z,9.35
2018-07-26T03:05:31.003Z,8.50
2018-07-26T03:07:58.960Z,9.00
2018-07-26T03:10:26.898Z,8.75
2018-07-26T03:12:54.960Z,8.85
2018-07-26T03:15:22.935Z,8.58
2018-07-26T03:17:50.904Z,9.45
2018-07-26T03:20:19.113Z,9.43
2018-07-26T03:22:47.238Z,8.80
2018-07-26T03:25:15.225Z,8.90
2018-07-26T03:27:43.202Z,8.68
2018-07-26T03:30:11.228Z,11.22
2018-07-26T03:32:39.414Z,9.28
2018-07-26T03:35:07.407Z,9.95
2018-07-26T03:37:35.467Z,10.88
2018-07-26T03:40:03.692Z,9.83
2018-07-26T03:42:31.745Z,9.93
2018-07-26T03:44:59.709Z,10.55
2018-07-26T03:47:27.823Z,8.80
2018-07-26T03:49:55.813Z,11.75
2018-07-26T03:52:23.781Z,9.15
2018-07-26T03:54:51.749Z,7.97
2018-07-26T03:57:19.900Z,8.90
2018-07-26T03:59:48.015Z,8.98
2018-07-26T04:02:16.024Z,11.50
2018-07-26T04:04:44.090Z,11.20
2018-07-26T04:07:12.178Z,8.73
2018-07-26T04:09:40.165Z,8.98
2018-07-26T04:12:08.167Z,11.08
2018-07-26T04:14:36.190Z,8.78
2018-07-26T04:17:04.248Z,9.45
2018-07-26T04:19:32.290Z,10.18
2018-07-26T04:22:00.307Z,10.23
2018-07-26T04:24:28.302Z,9.30
2018-07-26T04:26:56.413Z,11.10
2018-07-26T04:29:24.543Z,9.73
2018-07-26T04:31:52.858Z,10.65
2018-07-26T04:34:20.939Z,10.30
2018-07-26T04:36:48.979Z,10.10
2018-07-26T04:39:17.051Z,8.88
2018-07-26T04:41:45.201Z,9.38
2018-07-26T04:44:13.391Z,8.63
2018-07-26T04:46:42.487Z,9.38
2018-07-26T04:49:10.477Z,9.08
2018-07-26T04:51:38.674Z,8.18
2018-07-26T04:54:06.868Z,10.10
2018-07-26T04:56:34.991Z,8.80
2018-07-26T04:59:03.496Z,8.73
2018-07-26T05:01:32.605Z,9.63
2018-07-26T05:04:00.754Z,9.05
2018-07-26T05:06:29.095Z,9.38
2018-07-26T05:08:57.432Z,11.22
2018-07-26T05:11:26.820Z,8.48
2018-07-26T05:13:55.076Z,9.30
2018-07-26T05:16:23.079Z,12.25
2018-07-26T05:18:51.452Z,9.30
2018-07-26T05:21:19.490Z,8.43
2018-07-26T05:23:47.995Z,8.93
2018-07-26T05:26:16.238Z,8.95
2018-07-26T05:28:45.927Z,8.50
2018-07-26T05:31:14.504Z,9.55
2018-07-26T05:33:43.831Z,10.30
2018-07-26T05:36:11.991Z,10.05
2018-07-26T05:38:40.341Z,6.92
2018-07-26T05:41:08.459Z,8.90
2018-07-26T05:43:36.441Z,8.33
2018-07-26T05:46:04.728Z,9.68
2018-07-26T05:48:32.825Z,9.15
2018-07-26T05:51:00.995Z,8.68
2018-07-26T05:53:28.988Z,9.03
2018-07-26T05:55:57.059Z,10.98
2018-07-26T05:58:25.144Z,11.22
2018-07-26T06:00:53.303Z,9.08
2018-07-26T06:03:21.428Z,8.60
2018-07-26T06:05:49.618Z,10.00
2018-07-26T06:08:17.696Z,7.58
2018-07-26T06:10:45.762Z,8.78
2018-07-26T06:13:13.807Z,8.70
2018-07-26T06:15:41.934Z,8.60
2018-07-26T06:18:09.891Z,8.80
2018-07-26T06:20:38.185Z,8.43
2018-07-26T06:23:06.239Z,10.23
2018-07-26T06:25:34.315Z,8.68
2018-07-26T06:28:02.581Z,8.80
2018-07-26T06:30:30.630Z,8.70
2018-07-26T06:32:58.781Z,9.55
2018-07-26T06:35:26.907Z,8.95
2018-07-26T06:37:55.063Z,9.38
2018-07-26T06:40:23.054Z,11.73
2018-07-26T06:42:51.173Z,8.40
2018-07-26T06:45:19.202Z,7.75
2018-07-26T06:47:47.670Z,8.18
2018-07-26T06:50:15.823Z,11.85
2018-07-26T06:52:43.882Z,8.73
2018-07-26T06:55:11.927Z,9.80
2018-07-26T06:57:39.907Z,9.40
2018-07-26T07:00:09.724Z,9.65
2018-07-26T07:02:38.773Z,9.45
2018-07-26T07:05:07.109Z,9.98
2018-07-26T07:07:35.015Z,9.25
2018-07-26T07:10:03.151Z,10.40
2018-07-26T07:12:31.201Z,10.38
2018-07-26T07:14:59.327Z,15.95
2018-07-26T07:17:27.485Z,13.58
2018-07-26T07:19:55.661Z,11.70
2018-07-26T07:22:23.873Z,12.35
2018-07-26T07:24:51.924Z,9.45
2018-07-26T07:27:20.146Z,12.07
2018-07-26T07:29:48.158Z,10.48
2018-07-26T07:32:16.304Z,12.43
2018-07-26T07:34:44.384Z,13.80
2018-07-26T07:37:13.162Z,14.00
2018-07-26T07:39:41.584Z,12.10
2018-07-26T07:42:09.636Z,14.18
2018-07-26T07:44:37.581Z,12.43
2018-07-26T07:47:06.018Z,11.45
2018-07-26T07:49:34.099Z,11.00
2018-07-26T07:52:02.283Z,10.90
2018-07-26T07:54:30.390Z,8.30
2018-07-26T07:56:58.730Z,7.97
2018-07-26T07:59:26.902Z,8.38
2018-07-26T08:01:54.998Z,13.43
2018-07-26T08:04:23.091Z,10.45
2018-07-26T08:06:51.319Z,9.28
2018-07-26T08:09:19.403Z,8.80
2018-07-26T08:11:47.401Z,9.30
2018-07-26T08:14:15.429Z,11.33
2018-07-26T08:16:43.480Z,8.00
2018-07-26T08:19:11.491Z,7.65
2018-07-26T08:21:39.526Z,13.62
2018-07-26T08:24:07.743Z,8.08
2018-07-26T08:26:35.898Z,8.53
2018-07-26T08:29:04.114Z,8.13
2018-07-26T08:31:32.191Z,8.73
2018-07-26T08:34:00.235Z,9.43
2018-07-26T08:36:28.310Z,10.58
2018-07-26T08:38:56.411Z,9.40
2018-07-26T08:41:24.891Z,8.48
2018-07-26T08:43:53.022Z,8.13
2018-07-26T08:46:21.135Z,9.45
2018-07-26T08:48:49.138Z,10.65
2018-07-26T08:51:17.323Z,9.08
2018-07-26T08:53:50.924Z,8.75
2018-07-26T08:56:18.987Z,8.28
2018-07-26T08:58:47.158Z,9.45
2018-07-26T09:01:15.245Z,8.25
2018-07-26T09:03:43.397Z,10.15
2018-07-26T09:06:12.077Z,8.23
2018-07-26T09:08:40.123Z,8.38
2018-07-26T09:11:08.453Z,8.93
2018-07-26T09:13:36.505Z,8.98
2018-07-26T09:16:05.174Z,9.60
2018-07-26T09:18:33.300Z,9.95
2018-07-26T09:21:01.340Z,8.90
2018-07-26T09:23:29.356Z,8.73
2018-07-26T09:25:57.458Z,9.00
2018-07-26T09:28:25.724Z,7.72
2018-07-26T09:30:53.814Z,10.32
2018-07-26T09:33:21.861Z,9.80
2018-07-26T09:35:49.886Z,8.28
2018-07-26T09:38:18.156Z,9.25
2018-07-26T09:40:46.350Z,8.65
2018-07-26T09:43:14.526Z,8.03
2018-07-26T09:45:42.608Z,9.75
2018-07-26T09:48:11.031Z,11.30
2018-07-26T09:50:39.133Z,7.45
2018-07-26T09:53:07.104Z,8.95
2018-07-26T09:55:36.296Z,10.72
2018-07-26T09:58:04.392Z,7.83
2018-07-26T10:00:38.272Z,9.48
2018-07-26T10:03:06.423Z,9.23
2018-07-26T10:05:34.351Z,8.35
2018-07-26T10:08:02.445Z,8.83
2018-07-26T10:10:30.489Z,9.05
2018-07-26T10:12:58.527Z,9.15
2018-07-26T10:15:26.655Z,9.85
2018-07-26T10:17:54.898Z,9.43
2018-07-26T10:20:23.036Z,8.00
2018-07-26T10:22:51.191Z,8.28
2018-07-26T10:25:19.265Z,9.90
2018-07-26T10:27:47.224Z,8.88
2018-07-26T10:30:15.390Z,9.10
2018-07-26T10:32:43.459Z,10.48
2018-07-26T10:35:11.434Z,9.05
2018-07-26T10:37:39.586Z,8.95
2018-07-26T10:40:07.775Z,9.80
2018-07-26T10:42:35.858Z,10.63
2018-07-26T10:45:04.271Z,9.40
2018-07-26T10:47:32.361Z,9.75
2018-07-26T10:50:00.785Z,7.35
2018-07-26T10:52:28.832Z,8.18
2018-07-26T10:54:56.818Z,8.03
2018-07-26T10:57:24.871Z,9.03
2018-07-26T10:59:52.874Z,8.03
2018-07-26T11:02:20.961Z,8.10
2018-07-26T11:04:48.888Z,9.30
2018-07-26T11:07:16.908Z,7.72
2018-07-26T11:09:44.992Z,8.80
2018-07-26T11:12:12.942Z,8.75
2018-07-26T11:14:41.071Z,9.38
2018-07-26T11:17:11.356Z,9.05
2018-07-26T11:19:39.358Z,7.00
2018-07-26T11:22:07.732Z,9.78
2018-07-26T11:24:35.928Z,7.55
2018-07-26T11:27:04.193Z,8.00
2018-07-26T11:29:32.209Z,9.78
2018-07-26T11:32:00.243Z,10.55
2018-07-26T11:34:28.351Z,11.63
2018-07-26T11:36:56.541Z,9.55
2018-07-26T11:39:25.565Z,8.90
2018-07-26T11:41:53.567Z,7.87
2018-07-26T11:44:21.653Z,6.45
2018-07-26T11:46:49.761Z,9.90
2018-07-26T11:49:17.831Z,10.10
2018-07-26T11:51:45.823Z,9.60
2018-07-26T11:54:13.935Z,9.20
2018-07-26T11:56:41.904Z,10.28
2018-07-26T11:59:09.915Z,8.63
2018-07-26T12:01:38.043Z,8.70
2018-07-26T12:04:06.126Z,7.78
2018-07-26T12:06:35.128Z,10.55
2018-07-26T12:09:04.031Z,7.35
2018-07-26T12:11:32.176Z,8.70
2018-07-26T12:14:00.356Z,7.78
2018-07-26T12:16:28.472Z,9.13
2018-07-26T12:18:56.642Z,10.45
2018-07-26T12:21:24.795Z,10.08
2018-07-26T12:23:55.169Z,10.25
2018-07-26T12:26:26.416Z,9.40
2018-07-26T12:28:55.473Z,8.23
2018-07-26T12:31:23.972Z,8.88
2018-07-26T12:33:56.057Z,9.90
2018-07-26T12:36:29.130Z,10.60
2018-07-26T12:39:03.624Z,10.10
2018-07-26T12:41:31.872Z,8.75
2018-07-26T12:43:59.934Z,6.83
2018-07-26T12:46:28.025Z,7.75
2018-07-26T12:48:56.071Z,7.90
2018-07-26T12:51:24.174Z,7.25
2018-07-26T12:53:52.398Z,7.67
2018-07-26T12:56:20.698Z,9.30
2018-07-26T12:58:48.878Z,9.48
2018-07-26T13:01:17.290Z,9.30
2018-07-26T13:03:46.427Z,6.90
2018-07-26T13:06:14.724Z,7.42
2018-07-26T13:08:42.959Z,8.48
2018-07-26T13:11:11.410Z,7.47
2018-07-26T13:13:39.502Z,7.78
2018-07-26T13:16:07.719Z,7.05
2018-07-26T13:18:35.882Z,8.88
2018-07-26T13:21:04.057Z,8.60
2018-07-26T13:23:32.370Z,7.70
2018-07-26T13:26:00.604Z,9.00
2018-07-26T13:28:28.992Z,9.70
2018-07-26T13:30:57.025Z,9.23
2018-07-26T13:33:25.115Z,10.35
2018-07-26T13:35:54.367Z,8.93
2018-07-26T13:38:22.560Z,11.28
2018-07-26T13:40:50.911Z,10.60
2018-07-26T13:43:19.095Z,10.80
2018-07-26T13:45:47.297Z,10.72
2018-07-26T13:48:15.532Z,12.28
2018-07-26T13:50:43.618Z,12.53
2018-07-26T13:53:11.718Z,11.45
2018-07-26T13:55:39.888Z,12.82
2018-07-26T13:58:08.055Z,11.88
2018-07-26T14:00:36.562Z,12.33
2018-07-26T14:03:04.667Z,10.58
2018-07-26T14:05:32.708Z,13.28
2018-07-26T14:08:00.786Z,12.33
2018-07-26T14:10:28.860Z,9.70
2018-07-26T14:12:57.310Z,11.65
2018-07-26T14:15:26.040Z,11.12
2018-07-26T14:17:54.057Z,11.10
2018-07-26T14:20:22.359Z,10.20
2018-07-26T14:22:50.364Z,13.18
2018-07-26T14:25:18.483Z,11.75
2018-07-26T14:27:46.493Z,11.90
2018-07-26T14:30:14.555Z,10.90
2018-07-26T14:32:43.086Z,10.38
2018-07-26T14:35:11.206Z,10.98
2018-07-26T14:37:39.850Z,11.38
2018-07-26T14:40:08.137Z,12.60
2018-07-26T14:42:36.238Z,12.00
2018-07-26T14:45:05.282Z,11.33
2018-07-26T14:47:33.368Z,11.38
2018-07-26T14:50:01.527Z,10.90
2018-07-26T14:52:29.707Z,11.43
2018-07-26T14:54:57.784Z,11.48
2018-07-26T14:57:25.992Z,12.25
2018-07-26T14:59:54.525Z,9.60
2018-07-26T15:02:23.463Z,11.08
2018-07-26T15:04:51.462Z,10.25
2018-07-26T15:07:19.516Z,10.38
2018-07-26T15:09:47.749Z,16.30
2018-07-26T15:12:15.787Z,11.30
2018-07-26T15:14:44.056Z,14.55
2018-07-26T15:17:12.750Z,13.70
2018-07-26T15:19:41.065Z,12.78
2018-07-26T15:22:09.469Z,19.00
2018-07-26T15:24:37.478Z,15.35
2018-07-26T15:27:06.483Z,14.73
2018-07-26T15:29:34.639Z,13.90
2018-07-26T15:32:02.881Z,13.08
2018-07-26T15:34:30.858Z,9.58
2018-07-26T15:36:59.022Z,10.45
2018-07-26T15:39:27.532Z,9.68
2018-07-26T15:41:55.609Z,10.05
2018-07-26T15:44:23.512Z,11.10
2018-07-26T15:46:51.701Z,9.53
2018-07-26T15:49:19.817Z,10.68
2018-07-26T15:51:47.856Z,10.93
2018-07-26T15:54:16.027Z,11.10
2018-07-26T15:56:44.522Z,8.90
2018-07-26T15:59:12.747Z,10.75
2018-07-26T16:01:40.898Z,8.33
2018-07-26T16:04:08.981Z,11.20
2018-07-26T16:06:37.124Z,8.78
2018-07-26T16:09:08.091Z,9.20
2018-07-26T16:11:37.058Z,9.88
2018-07-26T16:14:05.220Z,8.55
2018-07-26T16:16:33.298Z,8.93
2018-07-26T16:19:01.408Z,10.75
2018-07-26T16:21:29.542Z,11.88
2018-07-26T16:23:57.990Z,12.68
2018-07-26T16:26:26.175Z,10.28
2018-07-26T16:28:54.417Z,9.88
2018-07-26T16:31:22.394Z,10.58
2018-07-26T16:33:50.387Z,9.30
2018-07-26T16:36:18.426Z,9.90
2018-07-26T16:38:46.652Z,9.75
2018-07-26T16:41:14.904Z,9.65
2018-07-26T16:43:43.366Z,8.15
2018-07-26T16:46:11.443Z,9.40
2018-07-26T16:48:39.615Z,10.35
2018-07-26T16:51:08.112Z,11.65
2018-07-26T16:53:36.110Z,9.85
2018-07-26T16:56:04.143Z,10.25
2018-07-26T16:58:32.532Z,11.35
2018-07-26T17:01:00.628Z,11.03
2018-07-26T17:03:29.413Z,10.20
2018-07-26T17:05:57.510Z,8.85
2018-07-26T17:08:25.791Z,10.90
2018-07-26T17:10:54.163Z,10.63
2018-07-26T17:13:22.137Z,11.65
2018-07-26T17:15:50.928Z,8.78
2018-07-26T17:18:19.027Z,9.85
2018-07-26T17:20:47.136Z,11.10
2018-07-26T17:23:15.405Z,10.35
2018-07-26T17:25:44.395Z,10.68
2018-07-26T17:28:12.354Z,11.48
2018-07-26T17:30:41.571Z,10.18
2018-07-26T17:33:09.843Z,8.43
2018-07-26T17:35:37.967Z,10.10
2018-07-26T17:38:06.388Z,12.80
2018-07-26T17:40:34.544Z,11.57
2018-07-26T17:43:02.622Z,10.13
2018-07-26T17:45:31.185Z,9.75
2018-07-26T17:47:59.282Z,9.48
2018-07-26T17:50:27.318Z,10.48
2018-07-26T17:52:55.437Z,11.33
2018-07-26T17:55:23.463Z,10.45
2018-07-26T17:57:51.806Z,10.60
2018-07-26T18:00:20.481Z,12.00
2018-07-26T18:02:48.524Z,11.53
2018-07-26T18:05:19.068Z,9.73
2018-07-26T18:07:47.845Z,10.28
2018-07-26T18:10:15.893Z,11.50
2018-07-26T18:12:44.457Z,12.07
2018-07-26T18:15:12.892Z,8.33
2018-07-26T18:17:41.055Z,9.25
2018-07-26T18:20:09.427Z,10.95
2018-07-26T18:22:37.902Z,10.35
2018-07-26T18:25:05.914Z,11.57
2018-07-26T18:27:34.026Z,11.25
2018-07-26T18:30:02.297Z,12.10
2018-07-26T18:32:30.746Z,8.75
2018-07-26T18:34:59.831Z,12.95
2018-07-26T18:37:28.035Z,11.75
2018-07-26T18:39:56.799Z,10.85
2018-07-26T18:42:24.857Z,8.80
2018-07-26T18:44:53.218Z,10.28
2018-07-26T18:47:22.051Z,11.50
2018-07-26T18:49:50.569Z,9.93
2018-07-26T18:52:18.706Z,9.28
2018-07-26T18:54:48.465Z,9.75
2018-07-26T18:57:18.220Z,10.30
2018-07-26T18:59:46.864Z,11.60
2018-07-26T19:02:15.987Z,10.82
2018-07-26T19:04:44.204Z,12.18
2018-07-26T19:07:12.387Z,10.32
2018-07-26T19:09:40.527Z,8.53
2018-07-26T19:12:08.655Z,9.15
2018-07-26T19:14:38.166Z,12.73
2018-07-26T19:17:06.332Z,10.45
2018-07-26T19:19:34.562Z,9.20
2018-07-26T19:22:02.667Z,8.38
2018-07-26T19:24:31.362Z,9.85
2018-07-26T19:27:00.421Z,9.63
2018-07-26T19:29:28.467Z,12.20
2018-07-26T19:31:57.230Z,11.70
2018-07-26T19:34:25.847Z,10.35
2018-07-26T19:36:53.987Z,12.20
2018-07-26T19:39:22.083Z,11.00
2018-07-26T19:41:50.647Z,13.80
2018-07-26T19:44:18.719Z,12.55
2018-07-26T19:46:47.240Z,12.82
2018-07-26T19:49:15.625Z,10.05
2018-07-26T19:51:44.323Z,9.45
2018-07-26T19:54:13.206Z,9.93
2018-07-26T19:56:41.753Z,10.55
2018-07-26T19:59:10.037Z,9.00
2018-07-26T20:01:38.637Z,10.03
2018-07-26T20:04:06.771Z,10.32
2018-07-26T20:06:35.299Z,10.13
2018-07-26T20:09:05.679Z,11.68
2018-07-26T20:11:34.383Z,11.57
2018-07-26T20:14:02.393Z,10.80
2018-07-26T20:16:31.010Z,10.38
2018-07-26T20:18:59.627Z,11.80
2018-07-26T20:21:27.651Z,9.50
2018-07-26T20:23:55.787Z,12.15
2018-07-26T20:26:23.856Z,10.05
2018-07-26T20:28:52.358Z,12.55
2018-07-26T20:31:21.105Z,11.60
2018-07-26T20:33:49.191Z,9.95
2018-07-26T20:36:17.284Z,10.78
2018-07-26T20:38:45.923Z,10.55
2018-07-26T20:41:14.384Z,8.93
2018-07-26T20:43:42.419Z,8.90
2018-07-26T20:46:10.394Z,11.50
2018-07-26T20:48:38.968Z,10.82
2018-07-26T20:51:07.327Z,10.98
2018-07-26T20:53:35.805Z,14.23
2018-07-26T20:56:04.568Z,11.10
2018-07-26T20:58:32.572Z,12.20
2018-07-26T21:01:00.610Z,10.70
2018-07-26T21:03:28.644Z,13.15
2018-07-26T21:05:56.653Z,14.25
2018-07-26T21:08:24.692Z,12.30
2018-07-26T21:10:52.657Z,13.48
2018-07-26T21:13:20.723Z,13.80
2018-07-26T21:15:49.730Z,13.50
2018-07-26T21:18:17.775Z,13.43
2018-07-26T21:20:45.763Z,13.00
2018-07-26T21:23:13.814Z,12.60
2018-07-26T21:25:41.754Z,11.73
2018-07-26T21:28:09.764Z,11.68
2018-07-26T21:30:37.859Z,12.95
2018-07-26T21:33:05.917Z,13.30
2018-07-26T21:35:33.933Z,12.00
2018-07-26T21:38:02.444Z,11.95
2018-07-26T21:40:31.099Z,10.45
2018-07-26T21:42:59.478Z,11.83
2018-07-26T21:45:27.810Z,14.90
2018-07-26T21:47:56.798Z,12.55
2018-07-26T21:50:25.017Z,13.15
2018-07-26T21:52:53.571Z,11.50
2018-07-26T21:55:22.062Z,11.83
2018-07-26T21:57:50.113Z,12.05
2018-07-26T22:00:18.360Z,11.22
2018-07-26T22:02:46.912Z,10.45
2018-07-26T22:05:15.015Z,11.05
2018-07-26T22:07:43.164Z,11.28
2018-07-26T22:10:11.304Z,11.43
2018-07-26T22:12:39.308Z,12.00
2018-07-26T22:15:07.440Z,11.55
2018-07-26T22:17:35.361Z,13.88
2018-07-26T22:20:03.643Z,12.95
2018-07-26T22:22:31.783Z,11.80
2018-07-26T22:24:59.851Z,13.08
2018-07-26T22:27:28.354Z,11.97
2018-07-26T22:29:56.598Z,12.47
2018-07-26T22:32:24.683Z,13.78
2018-07-26T22:34:52.779Z,11.12
2018-07-26T22:37:20.889Z,13.58
2018-07-26T22:39:49.075Z,12.47
2018-07-26T22:42:18.245Z,13.08
2018-07-26T22:44:46.607Z,11.97
2018-07-26T22:47:14.749Z,12.90
2018-07-26T22:49:42.962Z,10.72
2018-07-26T22:52:11.064Z,13.05
2018-07-26T22:54:39.044Z,13.68
2018-07-26T22:57:07.106Z,14.25
2018-07-26T22:59:35.816Z,11.65
2018-07-26T23:02:04.042Z,12.60
2018-07-26T23:04:32.127Z,11.90
2018-07-26T23:07:00.317Z,12.90
2018-07-26T23:09:28.348Z,12.20
2018-07-26T23:11:57.155Z,12.47
2018-07-26T23:14:25.329Z,13.88
2018-07-26T23:16:53.410Z,12.33
2018-07-26T23:19:21.488Z,12.50
2018-07-26T23:21:49.901Z,13.03
2018-07-26T23:24:17.959Z,13.48
2018-07-26T23:26:45.924Z,13.60
2018-07-26T23:29:13.953Z,13.25
2018-07-26T23:31:41.918Z,16.27
2018-07-26T23:34:09.832Z,14.95
2018-07-26T23:36:37.899Z,15.05
2018-07-26T23:39:08.822Z,12.73
2018-07-26T23:41:36.862Z,12.33
2018-07-26T23:44:05.279Z,14.30
2018-07-26T23:46:33.307Z,13.80
2018-07-26T23:49:01.346Z,13.95
2018-07-26T23:51:29.453Z,11.93
2018-07-26T23:53:57.443Z,11.15
2018-07-26T23:56:25.712Z,12.18
2018-07-26T23:58:53.743Z,12.00
